Time,TemperatureF,DewpointF,PressureIn,WindDirection,WindDirectionDegrees,WindSpeedMPH,WindSpeedGustMPH,Humidity,HourlyPrecipIn,Conditions,Clouds,dailyrainin,SoftwareType,DateUTC
2013-08-20 00:03:00,70.1,68.9,30.00,SE,139,0.0,0.0,96,0.00,,---,0.00,VWS V14.01,2013-08-20 05:03:00,
2013-08-20 00:08:00,70.1,68.9,30.00,SE,139,0.0,0.0,96,0.00,,---,0.00,VWS V14.01,2013-08-20 05:08:00,
2013-08-20 00:13:00,70.1,68.9,30.00,SE,139,0.0,0.0,96,0.00,,---,0.00,VWS V14.01,2013-08-20 05:13:00,
2013-08-20 00:18:00,70.0,68.8,30.01,SE,139,0.0,0.0,96,0.00,,---,0.00,VWS V14.01,2013-08-20 05:18:00,
2013-08-20 00:23:00,70.1,68.9,30.01,SE,139,0.0,0.0,96,0.00,,---,0.00,VWS V14.01,2013-08-20 05:23:00,
2013-08-20 00:28:00,69.9,68.7,30.01,SE,139,0.0,0.0,96,0.00,,---,0.00,VWS V14.01,2013-08-20 05:28:00,
2013-08-20 00:33:00,69.9,69.0,30.01,SE,139,0.0,0.0,97,0.00,,---,0.00,VWS V14.01,2013-08-20 05:33:00,
2013-08-20 00:36:00,69.9,69.0,30.01,SE,139,0.0,0.0,97,0.00,,---,0.00,VWS V14.01,2013-08-20 05:36:00,
2013-08-20 00:38:00,69.9,69.0,30.00,SE,139,0.0,0.0,97,0.00,,---,0.00,VWS V14.01,2013-08-20 05:38:00,
2013-08-20 00:43:00,69.6,68.7,30.00,SE,139,0.0,0.0,97,0.00,,---,0.00,VWS V14.01,2013-08-20 05:43:00,
2013-08-20 00:48:00,69.6,68.7,30.00,SE,139,0.0,0.0,97,0.00,,---,0.00,VWS V14.01,2013-08-20 05:48:00,
2013-08-20 00:53:00,69.6,68.7,30.00,SE,139,0.0,0.0,97,0.00,,---,0.00,VWS V14.01,2013-08-20 05:53:00,
2013-08-20 00:58:00,69.4,68.5,30.00,SE,139,0.0,0.0,97,0.00,,---,0.00,VWS V14.01,2013-08-20 05:58:00,
2013-08-20 01:03:00,69.3,68.4,30.00,SE,139,0.0,0.0,97,0.00,,---,0.00,VWS V14.01,2013-08-20 06:03:00,
2013-08-20 01:06:00,69.1,68.2,30.00,SE,139,0.0,0.0,97,0.00,,---,0.00,VWS V14.01,2013-08-20 06:06:00,
2013-08-20 01:08:00,69.0,68.1,30.00,SE,139,0.0,0.0,97,0.00,,---,0.00,VWS V14.01,2013-08-20 06:08:00,
2013-08-20 01:13:00,69.3,68.4,30.00,SE,139,0.0,0.0,97,0.00,,---,0.00,VWS V14.01,2013-08-20 06:13:00,
2013-08-20 01:18:00,69.2,68.3,30.00,SE,139,0.0,0.0,97,0.00,,---,0.00,VWS V14.01,2013-08-20 06:18:00,
2013-08-20 01:23:00,69.1,68.2,29.99,SE,139,0.0,0.0,97,0.00,,---,0.00,VWS V14.01,2013-08-20 06:23:00,
2013-08-20 01:28:00,68.9,68.0,30.00,SE,139,0.0,0.0,97,0.00,,---,0.00,VWS V14.01,2013-08-20 06:28:00,
2013-08-20 01:33:00,68.7,67.8,29.99,SE,139,0.0,0.0,97,0.00,,---,0.00,VWS V14.01,2013-08-20 06:33:00,
2013-08-20 01:38:00,68.7,67.8,30.00,SE,139,0.0,0.0,97,0.00,,---,0.00,VWS V14.01,2013-08-20 06:38:00,
2013-08-20 01:43:00,68.5,67.6,29.99,SE,139,0.0,0.0,97,0.00,,---,0.00,VWS V14.01,2013-08-20 06:43:00,
2013-08-20 01:48:00,68.5,67.6,29.99,SE,139,0.0,0.0,97,0.00,,---,0.00,VWS V14.01,2013-08-20 06:48:00,
2013-08-20 01:53:00,68.3,67.4,29.99,SE,139,0.0,0.0,97,0.00,,---,0.00,VWS V14.01,2013-08-20 06:53:00,
2013-08-20 01:58:00,68.3,67.4,29.99,SE,139,0.0,0.0,97,0.00,,---,0.00,VWS V14.01,2013-08-20 06:58:00,
2013-08-20 02:03:00,68.1,67.2,29.99,SE,139,0.0,0.0,97,0.00,,---,0.00,VWS V14.01,2013-08-20 07:03:00,
2013-08-20 02:06:00,68.2,67.3,29.99,SE,139,0.0,0.0,97,0.00,,---,0.00,VWS V14.01,2013-08-20 07:06:00,
2013-08-20 02:08:00,68.2,67.3,29.99,SE,139,0.0,0.0,97,0.00,,---,0.00,VWS V14.01,2013-08-20 07:08:00,
2013-08-20 02:13:00,68.3,67.4,29.99,SE,139,0.0,0.0,97,0.00,,---,0.00,VWS V14.01,2013-08-20 07:13:00,
2013-08-20 02:18:00,68.2,67.3,29.99,SE,139,0.0,0.0,97,0.00,,---,0.00,VWS V14.01,2013-08-20 07:18:00,
2013-08-20 02:23:00,67.9,67.0,29.99,SE,139,0.0,0.0,97,0.00,,---,0.00,VWS V14.01,2013-08-20 07:23:00,
2013-08-20 02:28:00,67.8,66.9,29.99,SE,139,0.0,0.0,97,0.00,,---,0.00,VWS V14.01,2013-08-20 07:28:00,
2013-08-20 02:33:00,67.6,66.7,29.99,SE,139,0.0,0.0,97,0.00,,---,0.00,VWS V14.01,2013-08-20 07:33:00,
2013-08-20 02:36:00,67.6,66.7,29.99,SE,139,0.0,0.0,97,0.00,,---,0.00,VWS V14.01,2013-08-20 07:36:00,
2013-08-20 02:38:00,67.5,66.6,29.99,SE,139,0.0,0.0,97,0.00,,---,0.00,VWS V14.01,2013-08-20 07:38:00,
2013-08-20 02:43:00,67.4,66.5,29.99,SE,139,0.0,0.0,97,0.00,,---,0.00,VWS V14.01,2013-08-20 07:43:00,
2013-08-20 02:48:00,67.3,66.4,29.99,SE,139,0.0,0.0,97,0.00,,---,0.00,VWS V14.01,2013-08-20 07:48:00,
2013-08-20 02:53:00,67.2,66.3,29.99,SE,139,0.0,0.0,97,0.00,,---,0.00,VWS V14.01,2013-08-20 07:53:00,
2013-08-20 02:58:00,67.2,66.6,29.99,SE,139,0.0,0.0,98,0.00,,---,0.00,VWS V14.01,2013-08-20 07:58:00,
2013-08-20 03:03:00,67.2,66.6,29.99,SE,139,0.0,0.0,98,0.00,,---,0.00,VWS V14.01,2013-08-20 08:03:00,
2013-08-20 03:08:00,67.1,66.2,29.99,SE,139,0.0,0.0,97,0.00,,---,0.00,VWS V14.01,2013-08-20 08:08:00,
2013-08-20 03:13:00,67.2,66.6,29.99,SE,139,0.0,0.0,98,0.00,,---,0.00,VWS V14.01,2013-08-20 08:13:00,
2013-08-20 03:18:00,67.1,66.2,29.99,SE,139,0.0,0.0,97,0.00,,---,0.00,VWS V14.01,2013-08-20 08:18:00,
2013-08-20 03:23:00,66.8,65.9,29.99,SE,139,0.0,0.0,97,0.00,,---,0.00,VWS V14.01,2013-08-20 08:23:00,
2013-08-20 03:28:00,66.8,66.2,29.99,SE,139,0.0,0.0,98,0.00,,---,0.00,VWS V14.01,2013-08-20 08:28:00,
2013-08-20 03:33:00,66.8,66.2,29.99,SE,139,0.0,0.0,98,0.00,,---,0.00,VWS V14.01,2013-08-20 08:33:00,
2013-08-20 03:38:00,66.9,66.3,29.99,SE,139,0.0,0.0,98,0.00,,---,0.00,VWS V14.01,2013-08-20 08:38:00,
2013-08-20 03:44:00,66.8,66.2,29.99,SE,139,0.0,0.0,98,0.00,,---,0.00,VWS V14.01,2013-08-20 08:44:00,
2013-08-20 03:49:00,66.6,66.0,29.99,SE,139,0.0,0.0,98,0.00,,---,0.00,VWS V14.01,2013-08-20 08:49:00,
2013-08-20 03:54:00,66.5,65.9,29.99,SE,139,0.0,0.0,98,0.00,,---,0.00,VWS V14.01,2013-08-20 08:54:00,
2013-08-20 03:59:00,66.4,65.8,29.99,SE,139,0.0,0.0,98,0.00,,---,0.00,VWS V14.01,2013-08-20 08:59:00,
2013-08-20 04:04:00,66.4,65.8,29.99,SE,139,0.0,0.0,98,0.00,,---,0.00,VWS V14.01,2013-08-20 09:04:00,
2013-08-20 04:06:00,66.4,65.8,29.99,SE,139,0.0,0.0,98,0.00,,---,0.00,VWS V14.01,2013-08-20 09:06:00,
2013-08-20 04:09:00,66.3,65.7,30.00,SE,139,0.0,0.0,98,0.00,,---,0.00,VWS V14.01,2013-08-20 09:09:00,
2013-08-20 04:14:00,66.3,65.7,30.00,SE,139,0.0,0.0,98,0.00,,---,0.00,VWS V14.01,2013-08-20 09:14:00,
2013-08-20 04:19:00,66.4,65.8,30.00,SE,139,0.0,0.0,98,0.00,,---,0.00,VWS V14.01,2013-08-20 09:19:00,
2013-08-20 04:24:00,66.6,66.0,29.99,SE,139,0.0,0.0,98,0.00,,---,0.00,VWS V14.01,2013-08-20 09:24:00,
2013-08-20 04:29:00,66.4,65.8,29.99,SE,139,0.0,0.0,98,0.00,,---,0.00,VWS V14.01,2013-08-20 09:29:00,
2013-08-20 04:34:00,66.3,65.7,29.99,SE,139,0.0,0.0,98,0.00,,---,0.00,VWS V14.01,2013-08-20 09:34:00,
2013-08-20 04:36:00,66.2,65.6,30.00,SE,139,0.0,0.0,98,0.00,,---,0.00,VWS V14.01,2013-08-20 09:36:00,
2013-08-20 04:39:00,66.1,65.5,30.00,SE,139,0.0,0.0,98,0.00,,---,0.00,VWS V14.01,2013-08-20 09:39:00,
2013-08-20 04:44:00,66.2,65.6,30.00,SE,139,0.0,0.0,98,0.00,,---,0.00,VWS V14.01,2013-08-20 09:44:00,
2013-08-20 04:49:00,66.2,65.6,30.00,SE,139,0.0,0.0,98,0.00,,---,0.00,VWS V14.01,2013-08-20 09:49:00,
2013-08-20 04:54:00,66.2,65.6,30.00,SE,139,0.0,0.0,98,0.00,,---,0.00,VWS V14.01,2013-08-20 09:54:00,
2013-08-20 04:59:00,66.1,65.5,30.00,SE,139,0.0,0.0,98,0.00,,---,0.00,VWS V14.01,2013-08-20 09:59:00,
2013-08-20 05:04:00,66.2,65.6,30.00,SE,139,0.0,0.0,98,0.00,,---,0.00,VWS V14.01,2013-08-20 10:04:00,
2013-08-20 05:06:00,66.2,65.6,30.00,SE,139,0.0,0.0,98,0.00,,---,0.00,VWS V14.01,2013-08-20 10:06:00,
2013-08-20 05:09:00,66.2,65.6,30.00,SE,139,0.0,0.0,98,0.00,,---,0.00,VWS V14.01,2013-08-20 10:09:00,
2013-08-20 05:14:00,66.2,65.6,30.00,SE,139,0.0,0.0,98,0.00,,---,0.00,VWS V14.01,2013-08-20 10:14:00,
2013-08-20 05:19:00,66.2,65.6,30.00,SE,139,0.0,0.0,98,0.00,,---,0.00,VWS V14.01,2013-08-20 10:19:00,
2013-08-20 05:24:00,66.1,65.5,30.00,SE,139,0.0,0.0,98,0.00,,---,0.00,VWS V14.01,2013-08-20 10:24:00,
2013-08-20 05:29:00,66.0,65.4,30.00,SE,139,0.0,0.0,98,0.00,,---,0.00,VWS V14.01,2013-08-20 10:29:00,
2013-08-20 05:34:00,66.2,65.6,30.00,SE,139,0.0,0.0,98,0.00,,---,0.00,VWS V14.01,2013-08-20 10:34:00,
2013-08-20 05:36:00,66.2,65.6,30.00,SE,139,0.0,0.0,98,0.00,,---,0.00,VWS V14.01,2013-08-20 10:36:00,
2013-08-20 05:39:00,66.3,65.7,30.00,SE,139,0.0,0.0,98,0.00,,---,0.00,VWS V14.01,2013-08-20 10:39:00,
2013-08-20 05:44:00,66.4,65.8,30.01,SE,139,0.0,0.0,98,0.00,,---,0.00,VWS V14.01,2013-08-20 10:44:00,
2013-08-20 05:49:00,66.4,65.8,30.01,SE,139,0.0,0.0,98,0.00,,---,0.00,VWS V14.01,2013-08-20 10:49:00,
2013-08-20 05:54:00,66.3,65.7,30.01,SE,139,0.0,0.0,98,0.00,,---,0.00,VWS V14.01,2013-08-20 10:54:00,
2013-08-20 05:59:00,66.3,65.7,30.01,SE,139,0.0,0.0,98,0.00,,---,0.00,VWS V14.01,2013-08-20 10:59:00,
2013-08-20 06:04:00,66.3,65.7,30.01,SE,139,0.0,0.0,98,0.00,,---,0.00,VWS V14.01,2013-08-20 11:04:00,
2013-08-20 06:06:00,66.3,65.7,30.01,SE,139,0.0,0.0,98,0.00,,---,0.00,VWS V14.01,2013-08-20 11:06:00,
2013-08-20 06:09:00,66.3,65.7,30.01,SE,139,0.0,0.0,98,0.00,,---,0.00,VWS V14.01,2013-08-20 11:09:00,
2013-08-20 06:14:00,66.2,65.6,30.01,SE,139,0.0,0.0,98,0.00,,---,0.00,VWS V14.01,2013-08-20 11:14:00,
2013-08-20 06:19:00,66.1,65.5,30.01,SE,139,0.0,0.0,98,0.00,,---,0.00,VWS V14.01,2013-08-20 11:19:00,
2013-08-20 06:24:00,66.1,65.5,30.01,SE,139,0.0,0.0,98,0.00,,---,0.00,VWS V14.01,2013-08-20 11:24:00,
2013-08-20 06:29:00,66.1,65.5,30.01,SE,138,0.0,0.0,98,0.00,,---,0.00,VWS V14.01,2013-08-20 11:29:00,
2013-08-20 06:34:00,66.2,65.6,30.01,SE,139,0.0,0.0,98,0.00,,---,0.00,VWS V14.01,2013-08-20 11:34:00,
2013-08-20 06:36:00,66.1,65.5,30.02,SE,139,0.0,0.0,98,0.00,,---,0.00,VWS V14.01,2013-08-20 11:36:00,
2013-08-20 06:39:00,66.0,65.4,30.02,SE,139,0.0,0.0,98,0.00,,---,0.00,VWS V14.01,2013-08-20 11:39:00,
2013-08-20 06:44:00,66.1,65.5,30.02,SE,139,0.0,0.0,98,0.00,,---,0.00,VWS V14.01,2013-08-20 11:44:00,
2013-08-20 06:49:00,66.2,65.6,30.02,SE,138,0.0,0.0,98,0.00,,---,0.00,VWS V14.01,2013-08-20 11:49:00,
2013-08-20 06:54:00,66.4,65.8,30.02,SE,139,0.0,0.0,98,0.00,,---,0.00,VWS V14.01,2013-08-20 11:54:00,
2013-08-20 06:59:00,66.6,66.0,30.02,SE,138,0.0,0.0,98,0.00,,---,0.00,VWS V14.01,2013-08-20 11:59:00,
2013-08-20 07:04:00,66.6,66.0,30.02,SE,139,0.0,0.0,98,0.00,,---,0.00,VWS V14.01,2013-08-20 12:04:00,
2013-08-20 07:06:00,66.6,66.0,30.02,SE,139,0.0,0.0,98,0.00,,---,0.00,VWS V14.01,2013-08-20 12:06:00,
2013-08-20 07:09:00,66.7,66.1,30.02,SE,139,0.0,0.0,98,0.00,,---,0.00,VWS V14.01,2013-08-20 12:09:00,
2013-08-20 07:14:00,66.8,66.2,30.03,SE,139,0.0,0.0,98,0.00,,---,0.00,VWS V14.01,2013-08-20 12:14:00,
2013-08-20 07:19:00,67.0,66.4,30.03,SE,139,0.0,0.0,98,0.00,,---,0.00,VWS V14.01,2013-08-20 12:19:00,
2013-08-20 07:24:00,67.2,66.6,30.03,SE,139,0.0,0.0,98,0.00,,---,0.00,VWS V14.01,2013-08-20 12:24:00,
2013-08-20 07:29:00,67.5,66.9,30.03,SE,139,0.0,0.0,98,0.00,,---,0.00,VWS V14.01,2013-08-20 12:29:00,
2013-08-20 07:34:00,67.9,67.3,30.03,SE,138,0.0,0.0,98,0.00,,---,0.00,VWS V14.01,2013-08-20 12:34:00,
2013-08-20 07:39:00,68.4,67.8,30.03,SE,139,0.0,0.0,98,0.00,,---,0.00,VWS V14.01,2013-08-20 12:39:00,
2013-08-20 07:44:00,68.9,68.3,30.03,SE,139,0.0,0.0,98,0.00,,---,0.00,VWS V14.01,2013-08-20 12:44:00,
2013-08-20 07:49:00,69.2,68.6,30.04,SE,139,0.0,0.0,98,0.00,,---,0.00,VWS V14.01,2013-08-20 12:49:00,
2013-08-20 07:54:00,69.5,68.9,30.04,SE,139,0.0,0.0,98,0.00,,---,0.00,VWS V14.01,2013-08-20 12:54:00,
2013-08-20 07:59:00,69.9,69.6,30.04,SE,139,0.0,0.0,99,0.00,,---,0.00,VWS V14.01,2013-08-20 12:59:00,
2013-08-20 08:04:00,70.4,69.8,30.04,SE,139,0.0,0.0,98,0.00,,---,0.00,VWS V14.01,2013-08-20 13:04:00,
2013-08-20 08:06:00,70.4,69.8,30.04,SE,138,0.0,0.0,98,0.00,,---,0.00,VWS V14.01,2013-08-20 13:06:00,
2013-08-20 08:09:00,70.5,69.9,30.04,SE,139,0.0,0.0,98,0.00,,---,0.00,VWS V14.01,2013-08-20 13:09:00,
2013-08-20 08:14:00,70.8,70.5,30.04,SE,139,0.0,0.0,99,0.00,,---,0.00,VWS V14.01,2013-08-20 13:14:00,
2013-08-20 08:19:00,71.2,70.9,30.04,SE,139,0.0,0.0,99,0.00,,---,0.00,VWS V14.01,2013-08-20 13:19:00,
2013-08-20 08:24:00,71.4,71.1,30.04,SE,139,0.0,0.0,99,0.00,,---,0.00,VWS V14.01,2013-08-20 13:24:00,
2013-08-20 08:29:00,72.2,71.9,30.04,SE,139,0.0,0.0,99,0.00,,---,0.00,VWS V14.01,2013-08-20 13:29:00,
2013-08-20 08:34:00,72.9,72.3,30.04,SE,139,0.0,0.0,98,0.00,,---,0.00,VWS V14.01,2013-08-20 13:34:00,
2013-08-20 08:39:00,73.4,72.8,30.04,SE,139,0.0,0.0,98,0.00,,---,0.00,VWS V14.01,2013-08-20 13:39:00,
2013-08-20 08:44:00,74.2,73.6,30.04,SE,139,0.0,0.0,98,0.00,,---,0.00,VWS V14.01,2013-08-20 13:44:00,
2013-08-20 08:49:00,76.0,75.1,30.05,SE,139,0.0,0.0,97,0.00,,---,0.00,VWS V14.01,2013-08-20 13:49:00,
2013-08-20 08:54:00,76.2,74.3,30.05,SE,139,0.0,0.0,94,0.00,,---,0.00,VWS V14.01,2013-08-20 13:54:00,
2013-08-20 08:59:00,76.6,74.8,30.05,SE,139,0.0,0.0,94,0.00,,---,0.00,VWS V14.01,2013-08-20 13:59:00,
2013-08-20 09:04:00,77.2,74.7,30.05,SE,138,0.0,0.0,92,0.00,,---,0.00,VWS V14.01,2013-08-20 14:04:00,
2013-08-20 09:09:00,77.7,74.9,30.05,SE,138,0.0,1.0,91,0.00,,---,0.00,VWS V14.01,2013-08-20 14:09:00,
2013-08-20 09:14:00,78.4,74.9,30.05,SE,138,0.0,1.0,89,0.00,,---,0.00,VWS V14.01,2013-08-20 14:14:00,
2013-08-20 09:19:00,78.9,75.1,30.05,SE,138,0.0,1.0,88,0.00,,---,0.00,VWS V14.01,2013-08-20 14:19:00,
2013-08-20 09:24:00,79.2,75.0,30.05,ESE,114,0.0,2.0,87,0.00,,---,0.00,VWS V14.01,2013-08-20 14:24:00,
2013-08-20 09:29:00,79.7,75.8,30.05,ESE,115,0.0,2.0,88,0.00,,---,0.00,VWS V14.01,2013-08-20 14:29:00,
2013-08-20 09:34:00,80.2,74.6,30.05,ESE,115,0.0,2.0,83,0.00,,---,0.00,VWS V14.01,2013-08-20 14:34:00,
2013-08-20 09:39:00,80.7,75.1,30.05,East,82,0.0,3.0,83,0.00,,---,0.00,VWS V14.01,2013-08-20 14:39:00,
2013-08-20 09:44:00,81.4,75.7,30.05,East,80,0.0,3.0,83,0.00,,---,0.00,VWS V14.01,2013-08-20 14:44:00,
2013-08-20 09:49:00,81.7,76.0,30.05,East,81,3.0,3.0,83,0.00,,---,0.00,VWS V14.01,2013-08-20 14:49:00,
2013-08-20 09:55:00,82.0,75.6,30.05,NE,56,1.0,5.0,81,0.00,,---,0.00,VWS V14.01,2013-08-20 14:55:00,
2013-08-20 10:00:00,82.3,75.5,30.05,NE,46,0.0,5.0,80,0.00,,---,0.00,VWS V14.01,2013-08-20 15:00:00,
2013-08-20 10:05:00,82.7,75.2,30.06,NE,46,0.0,5.0,78,0.00,,---,0.00,VWS V14.01,2013-08-20 15:05:00,
2013-08-20 10:06:00,82.8,76.0,30.06,NE,46,1.0,5.0,80,0.00,,---,0.00,VWS V14.01,2013-08-20 15:06:00,
2013-08-20 10:10:00,82.9,74.9,30.06,East,82,0.0,2.0,77,0.00,,---,0.00,VWS V14.01,2013-08-20 15:10:00,
2013-08-20 10:15:00,83.6,76.0,30.06,SW,232,0.0,2.0,78,0.00,,---,0.00,VWS V14.01,2013-08-20 15:15:00,
2013-08-20 10:20:00,83.3,76.1,30.06,ESE,117,0.0,2.0,79,0.00,,---,0.00,VWS V14.01,2013-08-20 15:20:00,
2013-08-20 10:25:00,84.0,76.8,30.06,East,82,0.0,2.0,79,0.00,,---,0.00,VWS V14.01,2013-08-20 15:25:00,
2013-08-20 10:30:00,84.3,76.3,30.06,East,82,0.0,2.0,77,0.00,,---,0.00,VWS V14.01,2013-08-20 15:30:00,
2013-08-20 10:35:00,84.6,77.8,30.06,East,82,2.0,2.0,80,0.00,,---,0.00,VWS V14.01,2013-08-20 15:35:00,
2013-08-20 10:36:00,84.8,76.8,30.06,East,82,2.0,2.0,77,0.00,,---,0.00,VWS V14.01,2013-08-20 15:36:00,
2013-08-20 10:45:00,84.7,75.5,30.06,NE,53,1.0,3.0,74,0.00,,---,0.00,VWS V14.01,2013-08-20 15:45:00,
2013-08-20 10:50:00,85.2,75.6,30.06,SE,133,0.0,3.0,73,0.00,,---,0.00,VWS V14.01,2013-08-20 15:50:00,
2013-08-20 10:55:00,85.3,76.5,30.06,SE,141,0.0,4.0,75,0.00,,---,0.00,VWS V14.01,2013-08-20 15:55:00,
2013-08-20 11:00:00,85.1,75.5,30.06,SE,126,1.0,4.0,73,0.00,,---,0.00,VWS V14.01,2013-08-20 16:00:00,
2013-08-20 11:05:00,83.9,75.1,30.06,East,88,0.0,4.0,75,0.00,,---,0.00,VWS V14.01,2013-08-20 16:05:00,
2013-08-20 11:10:00,84.7,75.1,30.06,East,86,2.0,3.0,73,0.00,,---,0.00,VWS V14.01,2013-08-20 16:10:00,
2013-08-20 11:15:00,85.6,76.0,30.06,East,89,3.0,3.0,73,0.00,,---,0.00,VWS V14.01,2013-08-20 16:15:00,
2013-08-20 11:20:00,86.3,75.4,30.06,ESE,119,2.0,3.0,70,0.00,,---,0.00,VWS V14.01,2013-08-20 16:20:00,
2013-08-20 11:25:00,85.0,75.8,30.06,ESE,119,1.0,3.0,74,0.00,,---,0.00,VWS V14.01,2013-08-20 16:25:00,
2013-08-20 11:30:00,85.9,76.2,30.05,East,80,1.0,3.0,73,0.00,,---,0.00,VWS V14.01,2013-08-20 16:30:00,
2013-08-20 11:35:00,85.2,74.7,30.05,East,84,1.0,3.0,71,0.00,,---,0.00,VWS V14.01,2013-08-20 16:35:00,
2013-08-20 11:36:00,84.9,74.9,30.05,East,84,0.0,3.0,72,0.00,,---,0.00,VWS V14.01,2013-08-20 16:36:00,
2013-08-20 11:40:00,84.1,74.5,30.05,East,84,0.0,1.0,73,0.00,,---,0.00,VWS V14.01,2013-08-20 16:40:00,
2013-08-20 11:45:00,83.2,75.2,30.05,East,84,1.0,2.0,77,0.00,,---,0.00,VWS V14.01,2013-08-20 16:45:00,
2013-08-20 11:50:00,83.1,75.2,30.05,East,84,0.0,2.0,77,0.00,,---,0.00,VWS V14.01,2013-08-20 16:50:00,
2013-08-20 11:55:00,82.5,76.1,30.05,East,84,0.0,2.0,81,0.00,,---,0.00,VWS V14.01,2013-08-20 16:55:00,
2013-08-20 12:00:00,83.2,76.4,30.05,East,84,0.0,2.0,80,0.00,,---,0.00,VWS V14.01,2013-08-20 17:00:00,
2013-08-20 12:05:00,84.8,75.6,30.05,East,84,0.0,2.0,74,0.00,,---,0.00,VWS V14.01,2013-08-20 17:05:00,
2013-08-20 12:06:00,85.1,75.9,30.05,East,84,0.0,2.0,74,0.00,,---,0.00,VWS V14.01,2013-08-20 17:06:00,
2013-08-20 12:10:00,86.1,75.2,30.04,ESE,103,2.0,2.0,70,0.00,,---,0.00,VWS V14.01,2013-08-20 17:10:00,
2013-08-20 12:15:00,87.1,76.1,30.04,ESE,112,0.0,2.0,70,0.00,,---,0.00,VWS V14.01,2013-08-20 17:15:00,
2013-08-20 12:20:00,86.8,77.1,30.04,ESE,112,0.0,2.0,73,0.00,,---,0.00,VWS V14.01,2013-08-20 17:20:00,
2013-08-20 12:25:00,87.1,77.0,30.04,East,92,3.0,3.0,72,0.00,,---,0.00,VWS V14.01,2013-08-20 17:25:00,
2013-08-20 12:30:00,86.5,75.1,30.04,ESE,102,0.0,3.0,69,0.00,,---,0.00,VWS V14.01,2013-08-20 17:30:00,
2013-08-20 12:35:00,87.0,75.6,30.04,ESE,107,1.0,3.0,69,0.00,,---,0.00,VWS V14.01,2013-08-20 17:35:00,
2013-08-20 12:40:00,87.0,74.7,30.04,East,90,0.0,2.0,67,0.00,,---,0.00,VWS V14.01,2013-08-20 17:40:00,
2013-08-20 12:45:00,86.3,74.9,30.04,East,90,0.0,2.0,69,0.00,,---,0.00,VWS V14.01,2013-08-20 17:45:00,
2013-08-20 12:50:00,85.9,74.1,30.04,East,90,0.0,2.0,68,0.00,,---,0.00,VWS V14.01,2013-08-20 17:50:00,
2013-08-20 12:55:00,86.7,77.4,30.04,East,79,2.0,3.0,74,0.00,,---,0.00,VWS V14.01,2013-08-20 17:55:00,
2013-08-20 13:00:00,87.5,76.1,30.03,ESE,105,0.0,5.0,69,0.00,,---,0.00,VWS V14.01,2013-08-20 18:00:00,
2013-08-20 13:05:00,88.1,75.3,30.03,NE,53,0.0,5.0,66,0.00,,---,0.00,VWS V14.01,2013-08-20 18:05:00,
2013-08-20 13:10:00,88.6,76.7,30.03,ESE,105,1.0,3.0,68,0.00,,---,0.00,VWS V14.01,2013-08-20 18:10:00,
2013-08-20 13:15:00,88.4,76.9,30.03,ESE,105,2.0,3.0,69,0.00,,---,0.00,VWS V14.01,2013-08-20 18:15:00,
2013-08-20 13:20:00,87.7,73.1,30.02,NE,47,0.0,4.0,62,0.00,,---,0.00,VWS V14.01,2013-08-20 18:20:00,
2013-08-20 13:25:00,88.2,75.9,30.02,ENE,76,1.0,4.0,67,0.00,,---,0.00,VWS V14.01,2013-08-20 18:25:00,
2013-08-20 13:30:00,88.2,74.5,30.02,East,80,1.0,4.0,64,0.00,,---,0.00,VWS V14.01,2013-08-20 18:30:00,
2013-08-20 13:35:00,88.2,74.0,30.02,East,86,1.0,4.0,63,0.00,,---,0.00,VWS V14.01,2013-08-20 18:35:00,
2013-08-20 13:40:00,88.4,76.9,30.02,East,86,0.0,1.0,69,0.00,,---,0.00,VWS V14.01,2013-08-20 18:40:00,
2013-08-20 13:45:00,89.1,75.8,30.02,SSE,148,1.0,4.0,65,0.00,,---,0.00,VWS V14.01,2013-08-20 18:45:00,
2013-08-20 13:50:00,89.1,74.4,30.02,East,90,3.0,4.0,62,0.00,,---,0.00,VWS V14.01,2013-08-20 18:50:00,
2013-08-20 13:55:00,89.1,75.8,30.02,East,82,0.0,4.0,65,0.00,,---,0.00,VWS V14.01,2013-08-20 18:55:00,
2013-08-20 14:00:00,88.6,74.9,30.02,ESE,122,1.0,4.0,64,0.00,,---,0.00,VWS V14.01,2013-08-20 19:00:00,
2013-08-20 14:05:00,88.2,75.4,30.02,East,82,3.0,4.0,66,0.00,,---,0.00,VWS V14.01,2013-08-20 19:05:00,
2013-08-20 14:06:00,88.2,75.9,30.02,East,82,1.0,4.0,67,0.00,,---,0.00,VWS V14.01,2013-08-20 19:06:00,
2013-08-20 14:10:00,88.1,74.4,30.02,East,82,1.0,2.0,64,0.00,,---,0.00,VWS V14.01,2013-08-20 19:10:00,
2013-08-20 14:15:00,87.8,74.6,30.01,East,82,0.0,3.0,65,0.00,,---,0.00,VWS V14.01,2013-08-20 19:15:00,
2013-08-20 14:20:00,87.7,75.4,30.01,ESE,105,3.0,3.0,67,0.00,,---,0.00,VWS V14.01,2013-08-20 19:20:00,
2013-08-20 14:25:00,86.7,76.2,30.02,SE,131,2.0,5.0,71,0.00,,---,0.00,VWS V14.01,2013-08-20 19:25:00,
2013-08-20 14:30:00,85.7,75.6,30.02,SE,126,3.0,5.0,72,0.00,,---,0.00,VWS V14.01,2013-08-20 19:30:00,
2013-08-20 14:35:00,83.8,75.4,30.02,ESE,102,2.0,5.0,76,0.00,,---,0.00,VWS V14.01,2013-08-20 19:35:00,
2013-08-20 14:36:00,83.5,75.1,30.02,ESE,102,2.0,5.0,76,0.00,,---,0.00,VWS V14.01,2013-08-20 19:36:00,
2013-08-20 14:40:00,82.5,74.9,30.02,East,85,3.0,5.0,78,0.00,,---,0.00,VWS V14.01,2013-08-20 19:40:00,
2013-08-20 14:45:00,81.9,74.8,30.02,East,92,2.0,5.0,79,0.00,,---,0.00,VWS V14.01,2013-08-20 19:45:00,
2013-08-20 14:50:00,81.4,75.0,30.02,East,96,2.0,5.0,81,0.00,,---,0.00,VWS V14.01,2013-08-20 19:50:00,
2013-08-20 14:55:00,80.7,75.1,30.01,East,92,2.0,5.0,83,0.00,,---,0.00,VWS V14.01,2013-08-20 19:55:00,
2013-08-20 15:00:00,80.5,75.2,30.01,East,92,1.0,5.0,84,0.00,,---,0.00,VWS V14.01,2013-08-20 20:00:00,
2013-08-20 15:05:00,80.3,75.4,30.02,East,92,2.0,5.0,85,0.00,,---,0.00,VWS V14.01,2013-08-20 20:05:00,
2013-08-20 15:10:00,80.2,74.9,30.02,ESE,107,2.0,3.0,84,0.00,,---,0.00,VWS V14.01,2013-08-20 20:10:00,
2013-08-20 15:15:00,80.3,75.4,30.04,ESE,107,0.0,3.0,85,0.00,,---,0.00,VWS V14.01,2013-08-20 20:15:00,
2013-08-20 15:20:00,79.5,74.2,30.04,West,281,3.0,12.0,84,0.00,,---,0.00,VWS V14.01,2013-08-20 20:20:00,
2013-08-20 15:26:00,77.9,73.7,30.05,NW,308,1.0,12.0,87,0.00,,---,0.00,VWS V14.01,2013-08-20 20:26:00,
2013-08-20 15:31:00,76.6,73.1,30.06,West,268,2.0,12.0,89,0.00,,---,0.00,VWS V14.01,2013-08-20 20:31:00,
2013-08-20 15:36:00,75.5,72.7,30.06,WSW,240,2.0,12.0,91,0.01,,---,0.01,VWS V14.01,2013-08-20 20:36:00,
2013-08-20 15:41:00,74.8,72.3,30.06,West,275,1.0,6.0,92,0.09,,---,0.09,VWS V14.01,2013-08-20 20:41:00,
2013-08-20 15:46:00,74.3,72.2,30.05,WNW,292,1.0,6.0,93,0.23,,---,0.23,VWS V14.01,2013-08-20 20:46:00,
2013-08-20 15:51:00,74.0,72.2,30.05,West,267,1.0,8.0,94,0.34,,---,0.34,VWS V14.01,2013-08-20 20:51:00,
2013-08-20 15:56:00,73.8,72.0,30.05,WSW,252,1.0,8.0,94,0.37,,---,0.37,VWS V14.01,2013-08-20 20:56:00,
2013-08-20 16:01:00,73.7,72.2,30.04,West,281,1.0,8.0,95,0.41,,---,0.41,VWS V14.01,2013-08-20 21:01:00,
2013-08-20 16:06:00,73.6,72.1,30.04,WNW,298,0.0,8.0,95,0.43,,---,0.43,VWS V14.01,2013-08-20 21:06:00,
2013-08-20 16:11:00,73.6,72.4,30.04,WNW,298,0.0,0.0,96,0.44,,---,0.44,VWS V14.01,2013-08-20 21:11:00,
2013-08-20 16:16:00,73.8,72.6,30.03,WNW,298,0.0,0.0,96,0.45,,---,0.45,VWS V14.01,2013-08-20 21:16:00,
2013-08-20 16:21:00,73.8,72.6,30.03,WNW,298,0.0,0.0,96,0.45,,---,0.45,VWS V14.01,2013-08-20 21:21:00,
2013-08-20 16:26:00,73.8,72.6,30.03,WNW,298,1.0,2.0,96,0.45,,---,0.45,VWS V14.01,2013-08-20 21:26:00,
2013-08-20 16:31:00,73.8,72.6,30.03,WNW,298,0.0,2.0,96,0.46,,---,0.46,VWS V14.01,2013-08-20 21:31:00,
2013-08-20 16:36:00,73.9,73.0,30.03,West,281,0.0,2.0,97,0.46,,---,0.46,VWS V14.01,2013-08-20 21:36:00,
2013-08-20 16:46:00,74.1,73.2,30.02,West,281,0.0,0.0,97,0.45,,---,0.46,VWS V14.01,2013-08-20 21:46:00,
2013-08-20 16:51:00,74.4,73.5,30.02,West,281,0.0,0.0,97,0.45,,---,0.46,VWS V14.01,2013-08-20 21:51:00,
2013-08-20 16:56:00,74.6,73.7,30.02,West,281,0.0,0.0,97,0.45,,---,0.46,VWS V14.01,2013-08-20 21:56:00,
2013-08-20 17:01:00,74.8,73.9,30.02,NW,304,0.0,1.0,97,0.45,,---,0.46,VWS V14.01,2013-08-20 22:01:00,
2013-08-20 17:06:00,74.9,74.0,30.02,NW,304,0.0,1.0,97,0.46,,---,0.47,VWS V14.01,2013-08-20 22:06:00,
2013-08-20 17:11:00,74.7,73.8,30.02,NW,304,1.0,1.0,97,0.04,,---,0.47,VWS V14.01,2013-08-20 22:11:00,
2013-08-20 17:16:00,74.5,73.6,30.02,WSW,254,2.0,3.0,97,0.04,,---,0.47,VWS V14.01,2013-08-20 22:16:00,
2013-08-20 17:21:00,74.6,73.7,30.01,WSW,254,0.0,3.0,97,0.04,,---,0.47,VWS V14.01,2013-08-20 22:21:00,
2013-08-20 17:26:00,74.9,74.0,30.01,WSW,254,0.0,3.0,97,0.04,,---,0.47,VWS V14.01,2013-08-20 22:26:00,
2013-08-20 17:31:00,75.1,74.2,30.01,WSW,254,0.0,3.0,97,0.04,,---,0.47,VWS V14.01,2013-08-20 22:31:00,
2013-08-20 17:36:00,75.3,74.4,30.01,WSW,254,0.0,3.0,97,0.04,,---,0.47,VWS V14.01,2013-08-20 22:36:00,
2013-08-20 17:41:00,75.4,74.5,30.01,WSW,254,0.0,0.0,97,0.01,,---,0.47,VWS V14.01,2013-08-20 22:41:00,
2013-08-20 17:46:00,75.6,74.7,30.01,WSW,254,0.0,1.0,97,0.01,,---,0.47,VWS V14.01,2013-08-20 22:46:00,
2013-08-20 17:51:00,75.6,74.4,30.01,WSW,254,0.0,1.0,96,0.01,,---,0.47,VWS V14.01,2013-08-20 22:51:00,
2013-08-20 17:56:00,75.7,74.8,30.01,WSW,254,0.0,1.0,97,0.01,,---,0.47,VWS V14.01,2013-08-20 22:56:00,
2013-08-20 18:01:00,75.7,74.5,30.01,WSW,254,0.0,1.0,96,0.01,,---,0.47,VWS V14.01,2013-08-20 23:01:00,
2013-08-20 18:06:00,76.2,75.3,30.01,WSW,254,0.0,1.0,97,0.02,,---,0.48,VWS V14.01,2013-08-20 23:06:00,
2013-08-20 18:11:00,76.1,74.9,30.01,WSW,254,0.0,0.0,96,0.01,,---,0.48,VWS V14.01,2013-08-20 23:11:00,
2013-08-20 18:16:00,76.6,75.4,30.01,WSW,254,0.0,0.0,96,0.01,,---,0.48,VWS V14.01,2013-08-20 23:16:00,
2013-08-20 18:21:00,76.2,74.7,30.01,WSW,254,0.0,0.0,95,0.01,,---,0.48,VWS V14.01,2013-08-20 23:21:00,
2013-08-20 18:26:00,76.1,74.6,30.00,WSW,254,0.0,0.0,95,0.01,,---,0.48,VWS V14.01,2013-08-20 23:26:00,
2013-08-20 18:31:00,76.0,74.8,30.01,WSW,254,0.0,0.0,96,0.01,,---,0.48,VWS V14.01,2013-08-20 23:31:00,
2013-08-20 18:36:00,75.9,74.7,30.01,SSW,202,0.0,0.0,96,0.01,,---,0.48,VWS V14.01,2013-08-20 23:36:00,
2013-08-20 18:41:00,75.8,74.6,30.01,SSW,202,0.0,0.0,96,0.01,,---,0.48,VWS V14.01,2013-08-20 23:41:00,
2013-08-20 18:46:00,75.7,74.5,30.01,SSW,202,0.0,0.0,96,0.01,,---,0.48,VWS V14.01,2013-08-20 23:46:00,
2013-08-20 18:51:00,75.9,74.7,30.01,SSW,211,0.0,0.0,96,0.01,,---,0.48,VWS V14.01,2013-08-20 23:51:00,
2013-08-20 18:56:00,75.9,74.4,30.02,SSW,209,0.0,0.0,95,0.01,,---,0.48,VWS V14.01,2013-08-20 23:56:00,
2013-08-20 19:01:00,76.0,74.5,30.02,SSW,209,0.0,0.0,95,0.01,,---,0.48,VWS V14.01,2013-08-21 00:01:00,
2013-08-20 19:06:00,75.9,74.7,30.02,SSW,209,0.0,0.0,96,0.01,,---,0.48,VWS V14.01,2013-08-21 00:06:00,
2013-08-20 19:11:00,75.7,74.5,30.02,SSW,209,0.0,0.0,96,0.00,,---,0.48,VWS V14.01,2013-08-21 00:11:00,
2013-08-20 19:16:00,75.5,74.3,30.02,SSW,209,0.0,0.0,96,0.00,,---,0.48,VWS V14.01,2013-08-21 00:16:00,
2013-08-20 19:21:00,75.6,74.4,30.02,SSW,209,0.0,0.0,96,0.00,,---,0.48,VWS V14.01,2013-08-21 00:21:00,
2013-08-20 19:26:00,75.6,74.4,30.02,SSW,209,0.0,0.0,96,0.00,,---,0.48,VWS V14.01,2013-08-21 00:26:00,
2013-08-20 19:31:00,75.4,74.2,30.02,SSW,209,0.0,0.0,96,0.00,,---,0.48,VWS V14.01,2013-08-21 00:31:00,
2013-08-20 19:36:00,75.2,74.3,30.02,SSW,209,0.0,0.0,97,0.00,,---,0.48,VWS V14.01,2013-08-21 00:36:00,
2013-08-20 19:41:00,74.9,73.7,30.02,SSW,209,0.0,0.0,96,0.00,,---,0.48,VWS V14.01,2013-08-21 00:41:00,
2013-08-20 19:46:00,74.8,73.9,30.02,SSW,209,0.0,0.0,97,0.00,,---,0.48,VWS V14.01,2013-08-21 00:46:00,
2013-08-20 19:51:00,74.8,73.9,30.02,SSW,209,0.0,0.0,97,0.00,,---,0.48,VWS V14.01,2013-08-21 00:51:00,
2013-08-20 19:56:00,74.9,74.0,30.02,SSW,209,0.0,0.0,97,0.00,,---,0.48,VWS V14.01,2013-08-21 00:56:00,
2013-08-20 20:01:00,74.8,73.9,30.01,SSW,209,0.0,0.0,97,0.00,,---,0.48,VWS V14.01,2013-08-21 01:01:00,
2013-08-20 20:06:00,74.8,73.9,30.01,SSW,209,0.0,0.0,97,0.00,,---,0.48,VWS V14.01,2013-08-21 01:06:00,
2013-08-20 20:11:00,74.7,73.8,30.01,SSW,209,0.0,1.0,97,0.00,,---,0.48,VWS V14.01,2013-08-21 01:11:00,
2013-08-20 20:16:00,74.5,73.6,30.01,SSW,209,0.0,1.0,97,0.00,,---,0.48,VWS V14.01,2013-08-21 01:16:00,
2013-08-20 20:21:00,74.6,73.7,30.01,SSW,209,0.0,1.0,97,0.00,,---,0.48,VWS V14.01,2013-08-21 01:21:00,
2013-08-20 20:26:00,74.4,73.5,30.01,SSW,209,0.0,1.0,97,0.00,,---,0.48,VWS V14.01,2013-08-21 01:26:00,
2013-08-20 20:31:00,74.4,73.5,30.01,SSW,209,0.0,1.0,97,0.00,,---,0.48,VWS V14.01,2013-08-21 01:31:00,
2013-08-20 20:36:00,74.3,73.4,30.01,SSW,209,0.0,1.0,97,0.00,,---,0.48,VWS V14.01,2013-08-21 01:36:00,
2013-08-20 20:41:00,74.4,73.5,30.01,SSW,209,0.0,0.0,97,0.00,,---,0.48,VWS V14.01,2013-08-21 01:41:00,
2013-08-20 20:46:00,74.2,73.3,30.01,SSW,209,0.0,0.0,97,0.00,,---,0.48,VWS V14.01,2013-08-21 01:46:00,
2013-08-20 20:51:00,74.1,73.2,30.01,SSW,209,0.0,0.0,97,0.00,,---,0.48,VWS V14.01,2013-08-21 01:51:00,
2013-08-20 20:56:00,73.9,73.0,30.02,SSW,209,0.0,0.0,97,0.00,,---,0.48,VWS V14.01,2013-08-21 01:56:00,
2013-08-20 21:01:00,73.8,72.9,30.02,SSW,209,0.0,0.0,97,0.00,,---,0.48,VWS V14.01,2013-08-21 02:01:00,
2013-08-20 21:06:00,73.7,72.8,30.02,SSW,209,0.0,0.0,97,0.00,,---,0.48,VWS V14.01,2013-08-21 02:06:00,
2013-08-20 21:11:00,73.5,72.6,30.02,SSW,209,0.0,0.0,97,0.00,,---,0.48,VWS V14.01,2013-08-21 02:11:00,
2013-08-20 21:16:00,73.5,72.6,30.02,SSW,209,0.0,0.0,97,0.00,,---,0.48,VWS V14.01,2013-08-21 02:16:00,
2013-08-20 21:21:00,73.4,72.5,30.02,SSW,209,0.0,0.0,97,0.00,,---,0.48,VWS V14.01,2013-08-21 02:21:00,
2013-08-20 21:26:00,73.3,72.7,30.03,SSW,209,0.0,0.0,98,0.00,,---,0.48,VWS V14.01,2013-08-21 02:26:00,
2013-08-20 21:32:00,73.1,72.5,30.03,SSW,209,0.0,0.0,98,0.00,,---,0.48,VWS V14.01,2013-08-21 02:32:00,
2013-08-20 21:36:00,72.9,72.0,30.02,SSW,209,0.0,0.0,97,0.00,,---,0.48,VWS V14.01,2013-08-21 02:36:00,
2013-08-20 21:37:00,72.9,72.0,30.02,SSW,209,0.0,0.0,97,0.00,,---,0.48,VWS V14.01,2013-08-21 02:37:00,
2013-08-20 21:42:00,73.0,72.1,30.02,SSW,209,0.0,0.0,97,0.00,,---,0.48,VWS V14.01,2013-08-21 02:42:00,
2013-08-20 21:47:00,72.8,71.9,30.02,SSW,209,0.0,0.0,97,0.00,,---,0.48,VWS V14.01,2013-08-21 02:47:00,
2013-08-20 21:52:00,72.7,71.8,30.02,SSW,209,0.0,0.0,97,0.00,,---,0.48,VWS V14.01,2013-08-21 02:52:00,
2013-08-20 21:57:00,72.7,72.1,30.02,SSW,209,0.0,0.0,98,0.00,,---,0.48,VWS V14.01,2013-08-21 02:57:00,
2013-08-20 22:02:00,72.8,72.2,30.02,SSW,209,0.0,0.0,98,0.00,,---,0.48,VWS V14.01,2013-08-21 03:02:00,
2013-08-20 22:06:00,72.8,72.2,30.02,SSW,209,0.0,0.0,98,0.00,,---,0.48,VWS V14.01,2013-08-21 03:06:00,
2013-08-20 22:07:00,72.8,72.2,30.02,SSW,209,0.0,0.0,98,0.00,,---,0.48,VWS V14.01,2013-08-21 03:07:00,
2013-08-20 22:12:00,72.6,72.0,30.02,SSW,209,0.0,0.0,98,0.00,,---,0.48,VWS V14.01,2013-08-21 03:12:00,
2013-08-20 22:17:00,72.4,71.8,30.02,SSW,209,0.0,0.0,98,0.00,,---,0.48,VWS V14.01,2013-08-21 03:17:00,
2013-08-20 22:22:00,72.2,71.6,30.03,SSW,209,0.0,0.0,98,0.00,,---,0.48,VWS V14.01,2013-08-21 03:22:00,
2013-08-20 22:27:00,72.2,71.6,30.03,SSW,209,0.0,0.0,98,0.00,,---,0.48,VWS V14.01,2013-08-21 03:27:00,
2013-08-20 22:32:00,72.2,71.6,30.03,SSW,209,0.0,0.0,98,0.00,,---,0.48,VWS V14.01,2013-08-21 03:32:00,
2013-08-20 22:37:00,72.2,71.6,30.03,SSW,209,0.0,0.0,98,0.00,,---,0.48,VWS V14.01,2013-08-21 03:37:00,
2013-08-20 22:42:00,72.1,71.5,30.03,SSW,209,0.0,0.0,98,0.00,,---,0.48,VWS V14.01,2013-08-21 03:42:00,
2013-08-20 22:47:00,72.1,71.5,30.03,SSW,209,0.0,0.0,98,0.00,,---,0.48,VWS V14.01,2013-08-21 03:47:00,
2013-08-20 22:52:00,72.1,71.5,30.03,SSW,209,0.0,0.0,98,0.00,,---,0.48,VWS V14.01,2013-08-21 03:52:00,
2013-08-20 22:57:00,72.1,71.5,30.03,SSW,209,0.0,0.0,98,0.00,,---,0.48,VWS V14.01,2013-08-21 03:57:00,
2013-08-20 23:02:00,72.1,71.5,30.04,SSW,209,1.0,1.0,98,0.00,,---,0.48,VWS V14.01,2013-08-21 04:02:00,
2013-08-20 23:06:00,72.0,71.4,30.04,SSW,209,0.0,1.0,98,0.00,,---,0.48,VWS V14.01,2013-08-21 04:06:00,
2013-08-20 23:12:00,71.9,71.3,30.04,SSW,209,0.0,0.0,98,0.00,,---,0.48,VWS V14.01,2013-08-21 04:12:00,
2013-08-20 23:17:00,71.6,71.0,30.04,SSW,209,0.0,0.0,98,0.00,,---,0.48,VWS V14.01,2013-08-21 04:17:00,
2013-08-20 23:22:00,71.7,71.1,30.04,SSW,209,0.0,0.0,98,0.00,,---,0.48,VWS V14.01,2013-08-21 04:22:00,
2013-08-20 23:27:00,71.5,70.9,30.04,SSW,209,0.0,0.0,98,0.00,,---,0.48,VWS V14.01,2013-08-21 04:27:00,
2013-08-20 23:32:00,71.4,70.8,30.04,SSW,209,0.0,0.0,98,0.00,,---,0.48,VWS V14.01,2013-08-21 04:32:00,
2013-08-20 23:36:00,71.5,70.9,30.04,SSW,209,0.0,0.0,98,0.00,,---,0.48,VWS V14.01,2013-08-21 04:36:00,
2013-08-20 23:37:00,71.5,70.9,30.04,SSW,209,0.0,0.0,98,0.00,,---,0.48,VWS V14.01,2013-08-21 04:37:00,
2013-08-20 23:42:00,71.6,71.0,30.05,SSW,209,0.0,0.0,98,0.00,,---,0.48,VWS V14.01,2013-08-21 04:42:00,
2013-08-20 23:47:00,71.6,71.0,30.05,SSW,209,0.0,1.0,98,0.00,,---,0.48,VWS V14.01,2013-08-21 04:47:00,
2013-08-20 23:52:00,71.5,70.9,30.05,SSW,209,0.0,1.0,98,0.00,,---,0.48,VWS V14.01,2013-08-21 04:52:00,
2013-08-20 23:57:00,71.5,70.9,30.05,SSW,209,0.0,1.0,98,0.00,,---,0.48,VWS V14.01,2013-08-21 04:57:00,